createdAt,value
2022-12-01T00:00:33.346Z,99619.84
2022-12-01T00:03:02.200Z,99615.47
2022-12-01T00:05:30.729Z,99622.00
2022-12-01T00:10:31.713Z,99613.03
2022-12-01T00:13:07.296Z,99624.47
2022-12-01T00:15:38.150Z,99615.16
2022-12-01T00:18:06.026Z,99611.63
2022-12-01T00:20:35.455Z,99623.91
2022-12-01T00:23:03.188Z,99614.50
2022-12-01T00:25:32.172Z,99613.03
2022-12-01T00:27:59.733Z,99607.63
2022-12-01T00:30:33.696Z,99622.78
2022-12-01T00:33:01.251Z,99619.47
2022-12-01T00:35:29.233Z,99619.84
2022-12-01T00:37:56.888Z,99624.59
2022-12-01T00:40:24.192Z,99619.38
2022-12-01T00:42:51.606Z,99626.28
2022-12-01T00:45:19.419Z,99628.31
2022-12-01T00:53:09.961Z,99634.56
2022-12-01T01:00:39.183Z,99627.69
2022-12-01T01:05:53.714Z,99630.22
2022-12-01T01:11:39.441Z,99635.13
2022-12-01T01:14:08.810Z,99626.16
2022-12-01T01:16:37.336Z,99636.34
2022-12-01T01:21:58.468Z,99621.53
2022-12-01T01:24:33.008Z,99621.25
2022-12-01T01:29:42.846Z,99619.78
2022-12-01T01:32:10.214Z,99633.09
2022-12-01T01:34:38.689Z,99625.34
2022-12-01T01:39:35.971Z,99623.66
2022-12-01T01:42:03.856Z,99618.47
2022-12-01T01:44:50.104Z,99617.25
2022-12-01T01:47:27.533Z,99619.09
2022-12-01T01:50:00.176Z,99613.91
2022-12-01T01:52:30.012Z,99624.72
2022-12-01T01:54:58.978Z,99596.56
2022-12-01T01:57:33.748Z,99608.50
2022-12-01T02:00:22.068Z,99608.13
2022-12-01T02:02:54.261Z,99598.72
2022-12-01T02:05:33.861Z,99607.94
2022-12-01T02:08:11.235Z,99608.97
2022-12-01T02:11:07.753Z,99597.75
2022-12-01T02:17:41.772Z,99606.25
2022-12-01T02:20:42.547Z,99606.03
2022-12-01T02:23:24.343Z,99601.03
2022-12-01T02:26:18.648Z,99594.59
2022-12-01T02:29:16.361Z,99589.38
2022-12-01T02:32:28.853Z,99597.75
2022-12-01T02:35:13.452Z,99592.19
2022-12-01T02:38:25.637Z,99593.56
2022-12-01T02:41:09.313Z,99589.81
2022-12-01T02:44:09.930Z,99592.34
2022-12-01T02:46:47.411Z,99585.25
2022-12-01T02:49:25.872Z,99586.38
2022-12-01T02:51:56.969Z,99575.38
2022-12-01T02:57:17.026Z,99583.69
2022-12-01T02:59:50.851Z,99584.72
2022-12-01T03:02:44.995Z,99593.00
2022-12-01T03:11:14.388Z,99582.56
2022-12-01T03:16:56.136Z,99588.19
2022-12-01T03:19:49.989Z,99586.03
2022-12-01T03:22:54.012Z,99580.19
2022-12-01T03:25:26.608Z,99591.34
2022-12-01T03:28:20.142Z,99600.09
2022-12-01T03:30:47.583Z,99599.81
2022-12-01T03:33:36.257Z,99601.88
2022-12-01T03:36:30.854Z,99602.69
2022-12-01T03:39:05.901Z,99600.84
2022-12-01T03:41:49.726Z,99602.53
2022-12-01T03:44:23.623Z,99595.91
2022-12-01T03:47:34.418Z,99604.66
2022-12-01T03:50:02.028Z,99602.25
2022-12-01T03:53:09.545Z,99608.50
2022-12-01T03:55:43.438Z,99609.97
2022-12-01T03:58:37.310Z,99609.13
2022-12-01T04:01:05.790Z,99603.44
2022-12-01T04:03:35.215Z,99615.78
2022-12-01T04:06:02.702Z,99608.69
2022-12-01T04:08:30.980Z,99609.91
2022-12-01T04:10:58.587Z,99606.81
2022-12-01T04:13:27.167Z,99603.66
2022-12-01T04:16:14.374Z,99601.59
2022-12-01T04:18:42.289Z,99602.44
2022-12-01T04:21:11.459Z,99600.09
2022-12-01T04:23:58.376Z,99608.00
2022-12-01T04:26:34.816Z,99600.28
2022-12-01T04:31:50.911Z,99610.53
2022-12-01T04:34:23.142Z,99602.81
2022-12-01T04:39:19.910Z,99615.78
2022-12-01T04:44:22.781Z,99622.19
2022-12-01T04:46:56.082Z,99615.66
2022-12-01T04:49:35.240Z,99621.25
2022-12-01T05:00:20.919Z,99633.94
2022-12-01T05:02:48.332Z,99638.88
2022-12-01T05:05:17.827Z,99618.72
2022-12-01T05:10:39.759Z,99629.25
2022-12-01T05:13:07.280Z,99626.75
2022-12-01T05:15:34.461Z,99621.06
2022-12-01T05:18:01.716Z,99625.63
2022-12-01T05:20:49.308Z,99637.72
2022-12-01T05:23:17.214Z,99636.88
2022-12-01T05:25:44.576Z,99637.25
2022-12-01T05:28:11.840Z,99626.63
2022-12-01T05:30:41.240Z,99628.47
2022-12-01T05:33:08.654Z,99630.53
2022-12-01T05:35:38.683Z,99633.78
2022-12-01T05:38:08.175Z,99628.47
2022-12-01T05:40:39.150Z,99640.69
2022-12-01T05:43:08.659Z,99639.66
2022-12-01T05:45:37.110Z,99634.44
2022-12-01T05:48:09.119Z,99620.47
2022-12-01T05:50:42.853Z,99634.44
2022-12-01T05:53:14.191Z,99632.66
2022-12-01T05:58:17.568Z,99635.34
2022-12-01T06:00:46.498Z,99633.66
2022-12-01T06:03:14.915Z,99634.41
2022-12-01T06:05:54.352Z,99638.97
2022-12-01T06:08:22.191Z,99640.47
2022-12-01T06:10:50.186Z,99644.00
2022-12-01T06:13:19.346Z,99647.91
2022-12-01T06:15:46.809Z,99652.84
2022-12-01T06:18:14.996Z,99662.44
2022-12-01T06:20:46.905Z,99649.78
2022-12-01T06:23:26.281Z,99648.63
2022-12-01T06:25:56.666Z,99654.34
2022-12-01T06:28:24.077Z,99654.34
2022-12-01T06:30:51.350Z,99646.59
2022-12-01T06:33:18.515Z,99658.03
2022-12-01T06:35:46.246Z,99663.94
2022-12-01T06:38:14.130Z,99666.16
2022-12-01T06:40:43.989Z,99658.25
2022-12-01T06:43:11.468Z,99672.59
2022-12-01T06:45:38.817Z,99650.31
2022-12-01T06:48:07.115Z,99666.16
2022-12-01T06:50:35.950Z,99666.34
2022-12-01T06:53:03.858Z,99663.50
2022-12-01T06:55:31.216Z,99658.31
2022-12-01T07:03:25.242Z,99669.97
2022-12-01T07:06:21.052Z,99670.28
2022-12-01T07:17:11.748Z,99670.03
2022-12-01T07:19:44.302Z,99682.16
2022-12-01T07:30:37.615Z,99682.78
2022-12-01T07:33:15.466Z,99678.22
2022-12-01T07:47:13.934Z,99682.56
2022-12-01T08:00:55.286Z,99679.03
2022-12-01T09:01:30.298Z,99693.78
2022-12-01T09:06:46.516Z,99682.47
2022-12-01T09:09:21.964Z,99681.91
2022-12-01T09:11:53.322Z,99679.03
2022-12-01T09:30:56.699Z,99655.19
2022-12-01T09:33:24.504Z,99664.03
2022-12-01T09:35:51.987Z,99654.22
2022-12-01T09:38:19.269Z,99653.19
2022-12-01T10:06:28.033Z,99636.53
2022-12-01T10:15:42.509Z,99637.00
2022-12-01T10:22:06.014Z,99613.06
2022-12-01T10:24:49.092Z,99619.97
2022-12-01T10:27:57.854Z,99620.03
2022-12-01T10:33:25.927Z,99615.44
2022-12-01T10:35:54.456Z,99612.56
2022-12-01T10:38:29.863Z,99611.63
2022-12-01T10:43:44.983Z,99597.94
2022-12-01T10:49:16.297Z,99593.00
2022-12-01T10:52:01.938Z,99597.34
2022-12-01T10:54:40.477Z,99596.97
2022-12-01T10:57:18.000Z,99590.50
2022-12-01T10:59:57.495Z,99592.22
2022-12-01T11:10:50.093Z,99575.75
2022-12-01T11:13:39.251Z,99579.38
2022-12-01T11:16:12.630Z,99569.78
2022-12-01T11:18:40.765Z,99575.84
2022-12-01T11:21:31.825Z,99573.34
2022-12-01T11:23:59.238Z,99577.13
2022-12-01T11:26:31.723Z,99562.50
2022-12-01T11:29:36.028Z,99572.75
2022-12-01T11:32:23.566Z,99569.03
2022-12-01T11:34:55.173Z,99563.00
2022-12-01T11:37:27.887Z,99570.28
2022-12-01T11:39:55.386Z,99565.53
2022-12-01T11:42:29.318Z,99563.63
2022-12-01T11:45:07.524Z,99569.28
2022-12-01T11:47:34.758Z,99573.09
2022-12-01T11:50:25.396Z,99568.69
2022-12-01T11:53:01.339Z,99564.94
2022-12-01T11:55:31.406Z,99559.09
2022-12-01T11:58:03.478Z,99570.59
2022-12-01T12:00:47.506Z,99550.34
2022-12-01T12:03:29.551Z,99560.19
2022-12-01T12:09:33.154Z,99563.13
2022-12-01T12:12:57.949Z,99562.53
2022-12-01T12:15:55.517Z,99567.75
2022-12-01T12:18:54.169Z,99561.91
2022-12-01T12:21:49.807Z,99559.19
2022-12-01T12:25:06.166Z,99555.66
2022-12-01T12:27:33.296Z,99552.94
2022-12-01T12:30:15.360Z,99556.94
2022-12-01T12:33:09.993Z,99555.66
2022-12-01T12:35:46.294Z,99557.34
2022-12-01T12:38:44.319Z,99550.06
2022-12-01T12:41:44.158Z,99550.69
2022-12-01T12:44:45.158Z,99550.25
2022-12-01T12:48:01.236Z,99543.78
2022-12-01T12:50:59.566Z,99546.50
2022-12-01T12:53:37.013Z,99543.19
2022-12-01T12:56:08.634Z,99535.25
2022-12-01T12:58:49.938Z,99533.59
2022-12-01T13:01:34.001Z,99540.28
2022-12-01T13:04:23.659Z,99538.41
2022-12-01T13:07:08.126Z,99531.72
2022-12-01T13:09:49.391Z,99532.97
2022-12-01T13:12:31.660Z,99524.00
2022-12-01T13:15:21.312Z,99517.53
2022-12-01T13:18:13.746Z,99532.38
2022-12-01T13:20:41.687Z,99523.56
2022-12-01T13:23:17.193Z,99523.19
2022-12-01T13:25:49.408Z,99516.91
2022-12-01T13:28:26.814Z,99529.66
2022-12-01T13:31:11.241Z,99523.81
2022-12-01T13:33:54.705Z,99521.50
2022-12-01T13:36:45.624Z,99513.97
2022-12-01T13:39:41.414Z,99525.69
2022-12-01T13:42:24.575Z,99517.34
2022-12-01T13:44:58.774Z,99516.88
2022-12-01T13:47:49.682Z,99525.88
2022-12-01T13:50:46.232Z,99526.94
2022-12-01T13:53:19.487Z,99534.63
2022-12-01T13:56:08.522Z,99525.63
2022-12-01T13:58:35.607Z,99532.13
2022-12-01T14:01:45.875Z,99529.63
2022-12-01T14:04:15.906Z,99531.50
2022-12-01T14:06:49.814Z,99535.47
2022-12-01T14:09:39.719Z,99533.97
2022-12-01T14:12:22.993Z,99527.09
2022-12-01T14:15:22.986Z,99529.19
2022-12-01T14:18:07.898Z,99520.16
2022-12-01T14:20:45.799Z,99531.66
2022-12-01T14:23:33.300Z,99528.53
2022-12-01T14:26:25.258Z,99534.75
2022-12-01T14:28:55.859Z,99538.31
2022-12-01T14:31:33.821Z,99531.81
2022-12-01T14:34:24.232Z,99538.50
2022-12-01T14:37:06.069Z,99534.69
2022-12-01T14:39:59.175Z,99541.38
2022-12-01T14:42:55.442Z,99541.75
2022-12-01T14:45:35.885Z,99548.59
2022-12-01T14:48:09.635Z,99546.09
2022-12-01T14:50:49.233Z,99545.47
2022-12-01T14:53:22.783Z,99551.28
2022-12-01T14:56:00.140Z,99550.03
2022-12-01T14:58:35.115Z,99552.50
2022-12-01T15:04:03.870Z,99548.66
2022-12-01T15:06:35.421Z,99554.09
2022-12-01T15:17:40.264Z,99556.09
2022-12-01T15:28:46.715Z,99569.94
2022-12-01T15:31:21.608Z,99564.03
2022-12-01T15:33:53.060Z,99558.41
2022-12-01T15:42:04.484Z,99562.72
2022-12-01T15:44:37.008Z,99554.34
2022-12-01T15:47:56.264Z,99565.84
2022-12-01T15:50:34.461Z,99569.56
2022-12-01T15:53:14.807Z,99560.78
2022-12-01T15:55:42.087Z,99562.03
2022-12-01T15:58:22.808Z,99563.63
2022-12-01T16:01:02.411Z,99568.44
2022-12-01T16:03:30.584Z,99563.19
2022-12-01T16:05:58.693Z,99555.66
2022-12-01T16:08:28.593Z,99574.69
2022-12-01T16:11:25.787Z,99566.97
2022-12-01T16:14:06.980Z,99566.13
2022-12-01T16:16:45.548Z,99563.53
2022-12-01T16:19:16.399Z,99577.91
2022-12-01T16:22:01.443Z,99578.69
2022-12-01T16:24:35.272Z,99573.28
2022-12-01T16:27:21.946Z,99566.31
2022-12-01T16:30:06.360Z,99573.41
2022-12-01T16:32:33.892Z,99567.91
2022-12-01T16:35:08.854Z,99549.66
2022-12-01T16:37:42.661Z,99553.78
2022-12-01T16:40:13.773Z,99549.63
2022-12-01T16:42:41.640Z,99562.75
2022-12-01T16:45:16.072Z,99564.16
2022-12-01T16:47:46.031Z,99547.16
2022-12-01T16:50:22.022Z,99558.03
2022-12-01T16:52:49.619Z,99578.22
2022-12-01T16:55:42.893Z,99577.47
2022-12-01T16:58:12.460Z,99571.63
2022-12-01T17:14:29.874Z,99558.38
